sensor_id;sensor_type;location;lat;lon;timestamp;temperature;humidity
13561;DHT22;6852;51.686;5.314;2023-01-15T00:01:55;8.30;99.90
13561;DHT22;6852;51.686;5.314;2023-01-15T00:04:21;8.30;99.90
13561;DHT22;6852;51.686;5.314;2023-01-15T00:06:48;8.30;99.90
13561;DHT22;6852;51.686;5.314;2023-01-15T00:09:16;8.20;99.90
13561;DHT22;6852;51.686;5.314;2023-01-15T00:11:42;8.20;99.90
13561;DHT22;6852;51.686;5.314;2023-01-15T00:14:09;8.20;99.90
13561;DHT22;6852;51.686;5.314;2023-01-15T00:16:37;8.20;99.90
13561;DHT22;6852;51.686;5.314;2023-01-15T00:19:08;8.20;99.90
13561;DHT22;6852;51.686;5.314;2023-01-15T00:21:36;8.20;99.90
13561;DHT22;6852;51.686;5.314;2023-01-15T00:24:03;8.20;99.90
13561;DHT22;6852;51.686;5.314;2023-01-15T00:26:49;8.10;99.90
13561;DHT22;6852;51.686;5.314;2023-01-15T00:29:34;8.10;99.90
13561;DHT22;6852;51.686;5.314;2023-01-15T00:32:04;8.10;99.90
13561;DHT22;6852;51.686;5.314;2023-01-15T00:34:31;8.10;99.90
13561;DHT22;6852;51.686;5.314;2023-01-15T00:36:59;8.10;99.90
13561;DHT22;6852;51.686;5.314;2023-01-15T00:39:26;8.10;99.90
13561;DHT22;6852;51.686;5.314;2023-01-15T00:41:54;8.00;99.90
13561;DHT22;6852;51.686;5.314;2023-01-15T00:44:21;8.00;99.90
13561;DHT22;6852;51.686;5.314;2023-01-15T00:46:48;8.00;99.90
13561;DHT22;6852;51.686;5.314;2023-01-15T00:49:15;8.00;99.90
13561;DHT22;6852;51.686;5.314;2023-01-15T00:51:42;8.00;99.90
13561;DHT22;6852;51.686;5.314;2023-01-15T00:54:09;7.90;99.90
13561;DHT22;6852;51.686;5.314;2023-01-15T00:56:36;7.90;99.90
13561;DHT22;6852;51.686;5.314;2023-01-15T00:59:04;7.90;99.90
13561;DHT22;6852;51.686;5.314;2023-01-15T01:01:31;7.90;99.90
13561;DHT22;6852;51.686;5.314;2023-01-15T01:03:58;7.90;99.90
13561;DHT22;6852;51.686;5.314;2023-01-15T01:06:25;7.90;99.90
13561;DHT22;6852;51.686;5.314;2023-01-15T01:08:52;7.90;99.90
13561;DHT22;6852;51.686;5.314;2023-01-15T01:11:22;7.90;99.90
13561;DHT22;6852;51.686;5.314;2023-01-15T01:13:53;7.90;99.90
13561;DHT22;6852;51.686;5.314;2023-01-15T01:18:50;7.90;99.90
13561;DHT22;6852;51.686;5.314;2023-01-15T01:21:17;7.80;99.90
13561;DHT22;6852;51.686;5.314;2023-01-15T01:23:44;7.80;99.90
13561;DHT22;6852;51.686;5.314;2023-01-15T01:26:11;7.80;99.90
13561;DHT22;6852;51.686;5.314;2023-01-15T01:28:40;7.80;99.90
13561;DHT22;6852;51.686;5.314;2023-01-15T01:31:07;7.70;99.90
13561;DHT22;6852;51.686;5.314;2023-01-15T01:33:34;7.70;99.90
13561;DHT22;6852;51.686;5.314;2023-01-15T01:36:02;7.70;99.90
13561;DHT22;6852;51.686;5.314;2023-01-15T01:38:28;7.70;99.90
13561;DHT22;6852;51.686;5.314;2023-01-15T01:40:55;7.60;99.90
13561;DHT22;6852;51.686;5.314;2023-01-15T01:43:25;7.60;99.90
13561;DHT22;6852;51.686;5.314;2023-01-15T01:45:52;7.60;99.90
13561;DHT22;6852;51.686;5.314;2023-01-15T01:48:30;7.60;99.90
13561;DHT22;6852;51.686;5.314;2023-01-15T01:51:00;7.60;99.90
13561;DHT22;6852;51.686;5.314;2023-01-15T01:53:30;7.60;99.90
13561;DHT22;6852;51.686;5.314;2023-01-15T01:55:58;7.60;99.90
13561;DHT22;6852;51.686;5.314;2023-01-15T01:58:30;7.60;99.90
13561;DHT22;6852;51.686;5.314;2023-01-15T02:00:58;7.60;99.90
13561;DHT22;6852;51.686;5.314;2023-01-15T02:03:31;7.60;99.90
13561;DHT22;6852;51.686;5.314;2023-01-15T02:06:00;7.60;99.90
13561;DHT22;6852;51.686;5.314;2023-01-15T02:08:29;7.60;99.90
13561;DHT22;6852;51.686;5.314;2023-01-15T02:10:58;7.60;99.90
13561;DHT22;6852;51.686;5.314;2023-01-15T02:13:37;7.60;99.90
13561;DHT22;6852;51.686;5.314;2023-01-15T02:16:26;7.60;99.90
13561;DHT22;6852;51.686;5.314;2023-01-15T02:19:05;7.60;99.90
13561;DHT22;6852;51.686;5.314;2023-01-15T02:27:16;7.50;99.90
13561;DHT22;6852;51.686;5.314;2023-01-15T02:30:08;7.50;99.90
13561;DHT22;6852;51.686;5.314;2023-01-15T02:32:46;7.50;99.90
13561;DHT22;6852;51.686;5.314;2023-01-15T02:35:35;7.50;99.90
13561;DHT22;6852;51.686;5.314;2023-01-15T02:38:06;7.40;99.90
13561;DHT22;6852;51.686;5.314;2023-01-15T02:40:34;7.40;99.90
13561;DHT22;6852;51.686;5.314;2023-01-15T02:43:03;7.40;99.90
13561;DHT22;6852;51.686;5.314;2023-01-15T02:45:35;7.40;99.90
13561;DHT22;6852;51.686;5.314;2023-01-15T02:48:16;7.40;99.90
13561;DHT22;6852;51.686;5.314;2023-01-15T02:50:48;7.30;99.90
13561;DHT22;6852;51.686;5.314;2023-01-15T02:53:19;7.30;99.90
13561;DHT22;6852;51.686;5.314;2023-01-15T02:55:51;7.40;99.90
13561;DHT22;6852;51.686;5.314;2023-01-15T02:58:27;7.40;99.90
13561;DHT22;6852;51.686;5.314;2023-01-15T03:00:56;7.40;99.90
13561;DHT22;6852;51.686;5.314;2023-01-15T03:03:45;7.40;99.90
13561;DHT22;6852;51.686;5.314;2023-01-15T03:06:43;7.30;99.90
13561;DHT22;6852;51.686;5.314;2023-01-15T03:09:12;7.40;99.90
13561;DHT22;6852;51.686;5.314;2023-01-15T03:11:46;7.40;99.90
13561;DHT22;6852;51.686;5.314;2023-01-15T03:14:35;7.30;99.90
13561;DHT22;6852;51.686;5.314;2023-01-15T03:17:18;7.30;99.90
13561;DHT22;6852;51.686;5.314;2023-01-15T03:20:15;7.30;99.90
13561;DHT22;6852;51.686;5.314;2023-01-15T03:22:45;7.30;99.90
13561;DHT22;6852;51.686;5.314;2023-01-15T03:25:25;7.20;99.90
13561;DHT22;6852;51.686;5.314;2023-01-15T03:27:54;7.30;99.90
13561;DHT22;6852;51.686;5.314;2023-01-15T03:30:22;7.20;99.90
13561;DHT22;6852;51.686;5.314;2023-01-15T03:32:49;7.20;99.90
13561;DHT22;6852;51.686;5.314;2023-01-15T03:38:12;7.20;99.90
13561;DHT22;6852;51.686;5.314;2023-01-15T03:40:49;7.20;99.90
13561;DHT22;6852;51.686;5.314;2023-01-15T03:43:20;7.20;99.90
13561;DHT22;6852;51.686;5.314;2023-01-15T03:51:57;7.10;99.90
13561;DHT22;6852;51.686;5.314;2023-01-15T03:54:34;7.10;99.90
13561;DHT22;6852;51.686;5.314;2023-01-15T03:57:13;7.10;99.90
13561;DHT22;6852;51.686;5.314;2023-01-15T03:59:54;7.10;99.90
13561;DHT22;6852;51.686;5.314;2023-01-15T04:02:22;7.10;99.90
13561;DHT22;6852;51.686;5.314;2023-01-15T04:04:51;7.10;99.90
13561;DHT22;6852;51.686;5.314;2023-01-15T04:07:19;7.00;99.90
13561;DHT22;6852;51.686;5.314;2023-01-15T04:09:47;7.00;99.90
13561;DHT22;6852;51.686;5.314;2023-01-15T04:12:14;7.00;99.90
13561;DHT22;6852;51.686;5.314;2023-01-15T04:14:41;7.00;99.90
13561;DHT22;6852;51.686;5.314;2023-01-15T04:17:07;7.00;99.90
13561;DHT22;6852;51.686;5.314;2023-01-15T04:19:34;7.10;99.90
13561;DHT22;6852;51.686;5.314;2023-01-15T04:22:01;7.00;99.90
13561;DHT22;6852;51.686;5.314;2023-01-15T04:24:28;7.00;99.90
13561;DHT22;6852;51.686;5.314;2023-01-15T04:26:55;7.00;99.90
13561;DHT22;6852;51.686;5.314;2023-01-15T04:29:21;7.00;99.90
13561;DHT22;6852;51.686;5.314;2023-01-15T04:31:48;7.00;99.90
13561;DHT22;6852;51.686;5.314;2023-01-15T04:34:18;7.00;99.90
13561;DHT22;6852;51.686;5.314;2023-01-15T04:36:45;7.00;99.90
13561;DHT22;6852;51.686;5.314;2023-01-15T04:39:13;7.00;99.90
13561;DHT22;6852;51.686;5.314;2023-01-15T04:41:40;6.90;99.90
13561;DHT22;6852;51.686;5.314;2023-01-15T04:44:26;6.90;99.90
13561;DHT22;6852;51.686;5.314;2023-01-15T04:46:55;6.80;99.90
13561;DHT22;6852;51.686;5.314;2023-01-15T04:49:23;6.80;99.90
13561;DHT22;6852;51.686;5.314;2023-01-15T04:51:49;6.90;99.90
13561;DHT22;6852;51.686;5.314;2023-01-15T04:54:17;6.90;99.90
13561;DHT22;6852;51.686;5.314;2023-01-15T04:56:46;6.90;99.90
13561;DHT22;6852;51.686;5.314;2023-01-15T04:59:14;6.90;99.90
13561;DHT22;6852;51.686;5.314;2023-01-15T05:01:41;6.90;99.90
13561;DHT22;6852;51.686;5.314;2023-01-15T05:04:24;6.90;99.90
13561;DHT22;6852;51.686;5.314;2023-01-15T05:06:50;6.90;99.90
13561;DHT22;6852;51.686;5.314;2023-01-15T05:09:18;6.90;99.90
13561;DHT22;6852;51.686;5.314;2023-01-15T05:11:45;6.90;99.90
13561;DHT22;6852;51.686;5.314;2023-01-15T05:14:12;6.80;99.90
13561;DHT22;6852;51.686;5.314;2023-01-15T05:16:39;6.80;99.90
13561;DHT22;6852;51.686;5.314;2023-01-15T05:19:05;6.80;99.90
13561;DHT22;6852;51.686;5.314;2023-01-15T05:21:39;6.80;99.90
13561;DHT22;6852;51.686;5.314;2023-01-15T05:24:07;6.80;99.90
13561;DHT22;6852;51.686;5.314;2023-01-15T05:26:38;6.80;99.90
13561;DHT22;6852;51.686;5.314;2023-01-15T05:29:05;6.80;99.90
13561;DHT22;6852;51.686;5.314;2023-01-15T05:31:32;6.70;99.90
13561;DHT22;6852;51.686;5.314;2023-01-15T05:33:59;6.70;99.90
13561;DHT22;6852;51.686;5.314;2023-01-15T05:36:28;6.70;99.90
13561;DHT22;6852;51.686;5.314;2023-01-15T05:38:56;6.70;99.90
13561;DHT22;6852;51.686;5.314;2023-01-15T05:41:25;6.70;99.90
13561;DHT22;6852;51.686;5.314;2023-01-15T05:44:11;6.70;99.90
13561;DHT22;6852;51.686;5.314;2023-01-15T05:46:40;6.70;99.90
13561;DHT22;6852;51.686;5.314;2023-01-15T05:49:13;6.70;99.90
13561;DHT22;6852;51.686;5.314;2023-01-15T05:51:41;6.70;99.90
13561;DHT22;6852;51.686;5.314;2023-01-15T05:54:14;6.70;99.90
13561;DHT22;6852;51.686;5.314;2023-01-15T05:56:42;6.60;99.90
13561;DHT22;6852;51.686;5.314;2023-01-15T05:59:12;6.60;99.90
13561;DHT22;6852;51.686;5.314;2023-01-15T06:01:39;6.60;99.90
13561;DHT22;6852;51.686;5.314;2023-01-15T06:04:06;6.60;99.90
13561;DHT22;6852;51.686;5.314;2023-01-15T06:06:34;6.60;99.90
13561;DHT22;6852;51.686;5.314;2023-01-15T06:09:02;6.60;99.90
13561;DHT22;6852;51.686;5.314;2023-01-15T06:11:30;6.60;99.90
13561;DHT22;6852;51.686;5.314;2023-01-15T06:13:57;6.60;99.90
13561;DHT22;6852;51.686;5.314;2023-01-15T06:16:24;6.60;99.90
13561;DHT22;6852;51.686;5.314;2023-01-15T06:18:51;6.60;99.90
13561;DHT22;6852;51.686;5.314;2023-01-15T06:21:18;6.60;99.90
13561;DHT22;6852;51.686;5.314;2023-01-15T06:23:45;6.60;99.90
13561;DHT22;6852;51.686;5.314;2023-01-15T06:26:17;6.60;99.90
13561;DHT22;6852;51.686;5.314;2023-01-15T06:28:44;6.60;99.90
13561;DHT22;6852;51.686;5.314;2023-01-15T06:31:14;6.60;99.90
13561;DHT22;6852;51.686;5.314;2023-01-15T06:33:41;6.60;99.90
13561;DHT22;6852;51.686;5.314;2023-01-15T06:36:11;6.60;99.90
13561;DHT22;6852;51.686;5.314;2023-01-15T06:38:39;6.60;99.90
13561;DHT22;6852;51.686;5.314;2023-01-15T06:41:08;6.50;99.90
13561;DHT22;6852;51.686;5.314;2023-01-15T06:43:55;6.60;99.90
13561;DHT22;6852;51.686;5.314;2023-01-15T06:46:46;6.50;99.90
13561;DHT22;6852;51.686;5.314;2023-01-15T06:49:32;6.50;99.90
13561;DHT22;6852;51.686;5.314;2023-01-15T06:52:00;6.50;99.90
13561;DHT22;6852;51.686;5.314;2023-01-15T06:54:27;6.50;99.90
13561;DHT22;6852;51.686;5.314;2023-01-15T06:56:54;6.60;99.90
13561;DHT22;6852;51.686;5.314;2023-01-15T06:59:21;6.60;99.90
13561;DHT22;6852;51.686;5.314;2023-01-15T07:01:48;6.60;99.90
13561;DHT22;6852;51.686;5.314;2023-01-15T07:04:15;6.60;99.90
13561;DHT22;6852;51.686;5.314;2023-01-15T07:06:42;6.60;99.90
13561;DHT22;6852;51.686;5.314;2023-01-15T07:09:09;6.60;99.90
13561;DHT22;6852;51.686;5.314;2023-01-15T07:11:35;6.50;99.90
13561;DHT22;6852;51.686;5.314;2023-01-15T07:14:25;6.50;99.90
13561;DHT22;6852;51.686;5.314;2023-01-15T07:16:54;6.50;99.90
13561;DHT22;6852;51.686;5.314;2023-01-15T07:19:21;6.50;99.90
13561;DHT22;6852;51.686;5.314;2023-01-15T07:21:48;6.40;99.90
13561;DHT22;6852;51.686;5.314;2023-01-15T07:24:15;6.40;99.90
13561;DHT22;6852;51.686;5.314;2023-01-15T07:26:43;6.40;99.90
13561;DHT22;6852;51.686;5.314;2023-01-15T07:29:11;6.30;99.90
13561;DHT22;6852;51.686;5.314;2023-01-15T07:31:38;6.30;99.90
13561;DHT22;6852;51.686;5.314;2023-01-15T07:34:06;6.30;99.90
13561;DHT22;6852;51.686;5.314;2023-01-15T07:36:33;6.30;99.90
13561;DHT22;6852;51.686;5.314;2023-01-15T07:39:01;6.20;99.90
13561;DHT22;6852;51.686;5.314;2023-01-15T07:41:28;6.20;99.90
13561;DHT22;6852;51.686;5.314;2023-01-15T07:44:14;6.20;99.90
13561;DHT22;6852;51.686;5.314;2023-01-15T07:46:59;6.20;99.90
13561;DHT22;6852;51.686;5.314;2023-01-15T07:49:46;6.20;99.90
13561;DHT22;6852;51.686;5.314;2023-01-15T07:52:18;6.10;99.90
13561;DHT22;6852;51.686;5.314;2023-01-15T07:54:46;6.20;99.90
13561;DHT22;6852;51.686;5.314;2023-01-15T07:57:18;6.10;99.90
13561;DHT22;6852;51.686;5.314;2023-01-15T07:59:45;6.10;99.90
13561;DHT22;6852;51.686;5.314;2023-01-15T08:02:12;6.10;99.90
13561;DHT22;6852;51.686;5.314;2023-01-15T08:04:39;6.10;99.90
13561;DHT22;6852;51.686;5.314;2023-01-15T08:07:06;6.10;99.90
13561;DHT22;6852;51.686;5.314;2023-01-15T08:09:34;6.10;99.90
13561;DHT22;6852;51.686;5.314;2023-01-15T08:12:02;6.10;99.90
13561;DHT22;6852;51.686;5.314;2023-01-15T08:14:47;6.00;99.90
13561;DHT22;6852;51.686;5.314;2023-01-15T08:17:34;6.10;99.90
13561;DHT22;6852;51.686;5.314;2023-01-15T08:20:03;6.10;99.90
13561;DHT22;6852;51.686;5.314;2023-01-15T08:22:31;6.10;99.90
13561;DHT22;6852;51.686;5.314;2023-01-15T08:24:59;6.10;99.90
13561;DHT22;6852;51.686;5.314;2023-01-15T08:27:25;6.10;99.90
13561;DHT22;6852;51.686;5.314;2023-01-15T08:29:52;6.10;99.90
13561;DHT22;6852;51.686;5.314;2023-01-15T08:32:19;6.20;99.90
13561;DHT22;6852;51.686;5.314;2023-01-15T08:34:46;6.20;99.90
13561;DHT22;6852;51.686;5.314;2023-01-15T08:37:13;6.20;99.90
13561;DHT22;6852;51.686;5.314;2023-01-15T08:39:39;6.20;99.90
13561;DHT22;6852;51.686;5.314;2023-01-15T08:42:06;6.20;99.90
13561;DHT22;6852;51.686;5.314;2023-01-15T08:44:33;6.30;99.90
13561;DHT22;6852;51.686;5.314;2023-01-15T08:47:00;6.30;99.90
13561;DHT22;6852;51.686;5.314;2023-01-15T08:49:27;6.30;99.90
13561;DHT22;6852;51.686;5.314;2023-01-15T08:51:54;6.20;99.90
13561;DHT22;6852;51.686;5.314;2023-01-15T08:54:21;6.20;99.90
13561;DHT22;6852;51.686;5.314;2023-01-15T08:56:50;6.20;99.90
13561;DHT22;6852;51.686;5.314;2023-01-15T08:59:17;6.20;99.90
13561;DHT22;6852;51.686;5.314;2023-01-15T09:01:44;6.20;99.90
13561;DHT22;6852;51.686;5.314;2023-01-15T09:04:15;6.30;99.90
13561;DHT22;6852;51.686;5.314;2023-01-15T09:06:43;6.30;99.90
13561;DHT22;6852;51.686;5.314;2023-01-15T09:09:10;6.30;99.90
13561;DHT22;6852;51.686;5.314;2023-01-15T09:11:38;6.30;99.90
13561;DHT22;6852;51.686;5.314;2023-01-15T09:14:10;6.30;99.90
13561;DHT22;6852;51.686;5.314;2023-01-15T09:16:56;6.50;99.90
13561;DHT22;6852;51.686;5.314;2023-01-15T09:19:23;6.50;99.90
13561;DHT22;6852;51.686;5.314;2023-01-15T09:21:50;6.60;99.90
13561;DHT22;6852;51.686;5.314;2023-01-15T09:24:17;6.70;99.90
13561;DHT22;6852;51.686;5.314;2023-01-15T09:26:44;6.70;99.90
13561;DHT22;6852;51.686;5.314;2023-01-15T09:29:29;6.60;99.90
13561;DHT22;6852;51.686;5.314;2023-01-15T09:31:56;6.80;99.90
13561;DHT22;6852;51.686;5.314;2023-01-15T09:34:23;6.80;99.90
13561;DHT22;6852;51.686;5.314;2023-01-15T09:36:49;6.60;99.90
13561;DHT22;6852;51.686;5.314;2023-01-15T09:39:16;6.70;99.90
13561;DHT22;6852;51.686;5.314;2023-01-15T09:47:32;6.70;99.90
13561;DHT22;6852;51.686;5.314;2023-01-15T09:55:48;6.80;99.90
13561;DHT22;6852;51.686;5.314;2023-01-15T09:58:18;6.90;99.90
13561;DHT22;6852;51.686;5.314;2023-01-15T10:00:48;7.10;99.90
13561;DHT22;6852;51.686;5.314;2023-01-15T10:08:36;7.50;99.90
13561;DHT22;6852;51.686;5.314;2023-01-15T10:13:46;7.60;99.90
13561;DHT22;6852;51.686;5.314;2023-01-15T10:16:28;7.80;99.90
13561;DHT22;6852;51.686;5.314;2023-01-15T10:18:57;7.80;99.90
13561;DHT22;6852;51.686;5.314;2023-01-15T10:21:59;7.80;99.90
13561;DHT22;6852;51.686;5.314;2023-01-15T10:24:38;7.80;99.90
13561;DHT22;6852;51.686;5.314;2023-01-15T10:27:17;7.80;99.90
13561;DHT22;6852;51.686;5.314;2023-01-15T10:29:52;7.80;99.90
13561;DHT22;6852;51.686;5.314;2023-01-15T10:35:32;7.90;99.90
13561;DHT22;6852;51.686;5.314;2023-01-15T10:47:14;7.50;99.90
13561;DHT22;6852;51.686;5.314;2023-01-15T10:49:44;7.50;99.90
13561;DHT22;6852;51.686;5.314;2023-01-15T10:52:32;7.50;99.90
13561;DHT22;6852;51.686;5.314;2023-01-15T10:55:35;7.50;99.90
13561;DHT22;6852;51.686;5.314;2023-01-15T10:58:02;7.60;99.90
13561;DHT22;6852;51.686;5.314;2023-01-15T11:00:37;7.60;99.90
13561;DHT22;6852;51.686;5.314;2023-01-15T11:03:12;7.40;99.90
13561;DHT22;6852;51.686;5.314;2023-01-15T11:05:43;7.30;99.90
13561;DHT22;6852;51.686;5.314;2023-01-15T11:08:23;7.30;99.90
13561;DHT22;6852;51.686;5.314;2023-01-15T11:11:39;7.30;99.90
13561;DHT22;6852;51.686;5.314;2023-01-15T11:14:41;7.30;99.90
13561;DHT22;6852;51.686;5.314;2023-01-15T11:17:42;7.50;99.90
13561;DHT22;6852;51.686;5.314;2023-01-15T11:20:30;7.70;99.90
13561;DHT22;6852;51.686;5.314;2023-01-15T11:23:10;7.50;99.90
13561;DHT22;6852;51.686;5.314;2023-01-15T11:25:46;7.40;99.90
13561;DHT22;6852;51.686;5.314;2023-01-15T11:28:13;7.50;99.90
13561;DHT22;6852;51.686;5.314;2023-01-15T11:30:41;7.40;99.90
13561;DHT22;6852;51.686;5.314;2023-01-15T11:33:22;7.60;99.90
13561;DHT22;6852;51.686;5.314;2023-01-15T11:35:53;7.50;99.90
13561;DHT22;6852;51.686;5.314;2023-01-15T11:38:26;7.40;99.90
13561;DHT22;6852;51.686;5.314;2023-01-15T11:40:59;7.30;99.90
13561;DHT22;6852;51.686;5.314;2023-01-15T11:43:28;7.30;99.90
13561;DHT22;6852;51.686;5.314;2023-01-15T11:46:26;7.20;99.90
13561;DHT22;6852;51.686;5.314;2023-01-15T11:49:21;7.20;99.90
13561;DHT22;6852;51.686;5.314;2023-01-15T11:52:12;7.10;99.90
13561;DHT22;6852;51.686;5.314;2023-01-15T11:54:42;7.20;99.90
13561;DHT22;6852;51.686;5.314;2023-01-15T11:57:09;7.20;99.90
13561;DHT22;6852;51.686;5.314;2023-01-15T11:59:36;7.20;99.90
13561;DHT22;6852;51.686;5.314;2023-01-15T12:04:57;6.90;99.90
13561;DHT22;6852;51.686;5.314;2023-01-15T12:07:26;6.80;99.90
13561;DHT22;6852;51.686;5.314;2023-01-15T12:10:26;6.70;99.90
13561;DHT22;6852;51.686;5.314;2023-01-15T12:27:36;6.60;99.90
13561;DHT22;6852;51.686;5.314;2023-01-15T12:30:03;6.60;99.90
13561;DHT22;6852;51.686;5.314;2023-01-15T12:32:41;6.60;99.90
13561;DHT22;6852;51.686;5.314;2023-01-15T12:35:22;6.60;99.90
13561;DHT22;6852;51.686;5.314;2023-01-15T12:37:54;6.60;99.90
13561;DHT22;6852;51.686;5.314;2023-01-15T12:43:23;6.70;99.90
13561;DHT22;6852;51.686;5.314;2023-01-15T12:46:13;6.80;99.90
13561;DHT22;6852;51.686;5.314;2023-01-15T12:51:46;6.90;99.90
13561;DHT22;6852;51.686;5.314;2023-01-15T12:54:20;7.00;99.90
13561;DHT22;6852;51.686;5.314;2023-01-15T12:57:15;7.00;99.90
13561;DHT22;6852;51.686;5.314;2023-01-15T12:59:49;7.10;99.90
13561;DHT22;6852;51.686;5.314;2023-01-15T13:02:27;7.20;99.90
13561;DHT22;6852;51.686;5.314;2023-01-15T13:07:57;7.20;99.90
13561;DHT22;6852;51.686;5.314;2023-01-15T13:10:27;7.30;99.90
13561;DHT22;6852;51.686;5.314;2023-01-15T13:13:28;7.30;99.90
13561;DHT22;6852;51.686;5.314;2023-01-15T13:16:18;7.30;99.90
13561;DHT22;6852;51.686;5.314;2023-01-15T13:21:21;7.00;99.90
13561;DHT22;6852;51.686;5.314;2023-01-15T13:24:07;7.10;99.90
13561;DHT22;6852;51.686;5.314;2023-01-15T13:34:52;7.20;99.90
13561;DHT22;6852;51.686;5.314;2023-01-15T13:42:45;7.20;99.90
13561;DHT22;6852;51.686;5.314;2023-01-15T13:47:47;7.00;99.90
13561;DHT22;6852;51.686;5.314;2023-01-15T13:50:29;7.00;99.90
13561;DHT22;6852;51.686;5.314;2023-01-15T13:55:39;7.10;99.90
13561;DHT22;6852;51.686;5.314;2023-01-15T13:58:28;7.10;99.90
13561;DHT22;6852;51.686;5.314;2023-01-15T14:04:13;7.10;99.90
13561;DHT22;6852;51.686;5.314;2023-01-15T14:06:44;7.20;99.90
13561;DHT22;6852;51.686;5.314;2023-01-15T14:09:27;7.20;99.90
13561;DHT22;6852;51.686;5.314;2023-01-15T14:36:18;7.40;99.90
13561;DHT22;6852;51.686;5.314;2023-01-15T14:38:49;7.40;99.90
13561;DHT22;6852;51.686;5.314;2023-01-15T14:41:28;7.40;99.90
13561;DHT22;6852;51.686;5.314;2023-01-15T14:43:57;7.40;99.90
13561;DHT22;6852;51.686;5.314;2023-01-15T14:46:29;7.50;99.90
13561;DHT22;6852;51.686;5.314;2023-01-15T14:48:58;7.50;99.90
13561;DHT22;6852;51.686;5.314;2023-01-15T14:54:06;7.60;99.90
13561;DHT22;6852;51.686;5.314;2023-01-15T14:56:43;7.60;99.90
13561;DHT22;6852;51.686;5.314;2023-01-15T14:59:24;7.50;99.90
13561;DHT22;6852;51.686;5.314;2023-01-15T15:01:55;7.70;99.90
13561;DHT22;6852;51.686;5.314;2023-01-15T15:04:55;7.70;99.90
13561;DHT22;6852;51.686;5.314;2023-01-15T15:07:25;7.80;99.90
13561;DHT22;6852;51.686;5.314;2023-01-15T15:16:04;7.70;99.90
13561;DHT22;6852;51.686;5.314;2023-01-15T15:18:47;7.60;99.90
13561;DHT22;6852;51.686;5.314;2023-01-15T15:21:24;7.50;99.90
13561;DHT22;6852;51.686;5.314;2023-01-15T15:24:23;7.50;99.90
13561;DHT22;6852;51.686;5.314;2023-01-15T15:26:51;7.50;99.90
13561;DHT22;6852;51.686;5.314;2023-01-15T15:29:19;7.40;99.90
13561;DHT22;6852;51.686;5.314;2023-01-15T15:31:57;7.40;99.90
13561;DHT22;6852;51.686;5.314;2023-01-15T15:36:59;7.40;99.90
13561;DHT22;6852;51.686;5.314;2023-01-15T15:39:40;7.40;99.90
13561;DHT22;6852;51.686;5.314;2023-01-15T15:42:33;7.40;99.90
13561;DHT22;6852;51.686;5.314;2023-01-15T15:45:25;7.30;99.90
13561;DHT22;6852;51.686;5.314;2023-01-15T15:48:31;7.20;99.90
13561;DHT22;6852;51.686;5.314;2023-01-15T15:51:27;7.20;99.90
13561;DHT22;6852;51.686;5.314;2023-01-15T15:54:13;7.10;99.90
13561;DHT22;6852;51.686;5.314;2023-01-15T16:01:57;7.00;99.90
13561;DHT22;6852;51.686;5.314;2023-01-15T16:04:25;7.00;99.90
13561;DHT22;6852;51.686;5.314;2023-01-15T16:06:52;6.90;99.90
13561;DHT22;6852;51.686;5.314;2023-01-15T16:09:23;6.90;99.90
13561;DHT22;6852;51.686;5.314;2023-01-15T16:11:51;6.90;99.90
13561;DHT22;6852;51.686;5.314;2023-01-15T16:14:19;6.90;99.90
13561;DHT22;6852;51.686;5.314;2023-01-15T16:16:48;6.80;99.90
13561;DHT22;6852;51.686;5.314;2023-01-15T16:19:21;6.80;99.90
13561;DHT22;6852;51.686;5.314;2023-01-15T16:21:51;6.80;99.90
13561;DHT22;6852;51.686;5.314;2023-01-15T16:24:27;6.80;99.90
13561;DHT22;6852;51.686;5.314;2023-01-15T16:27:04;6.70;99.90
13561;DHT22;6852;51.686;5.314;2023-01-15T16:29:34;6.70;99.90
13561;DHT22;6852;51.686;5.314;2023-01-15T16:32:11;6.70;99.90
13561;DHT22;6852;51.686;5.314;2023-01-15T16:34:39;6.70;99.90
13561;DHT22;6852;51.686;5.314;2023-01-15T16:37:23;6.70;99.90
13561;DHT22;6852;51.686;5.314;2023-01-15T16:39:50;6.60;99.90
13561;DHT22;6852;51.686;5.314;2023-01-15T16:42:33;6.60;99.90
13561;DHT22;6852;51.686;5.314;2023-01-15T16:45:10;6.60;99.90
13561;DHT22;6852;51.686;5.314;2023-01-15T16:50:33;6.50;99.90
13561;DHT22;6852;51.686;5.314;2023-01-15T16:53:02;6.50;99.90
13561;DHT22;6852;51.686;5.314;2023-01-15T16:55:40;6.60;99.90
13561;DHT22;6852;51.686;5.314;2023-01-15T17:00:56;6.60;99.90
13561;DHT22;6852;51.686;5.314;2023-01-15T17:03:25;6.60;99.90
13561;DHT22;6852;51.686;5.314;2023-01-15T17:05:55;6.50;99.90
13561;DHT22;6852;51.686;5.314;2023-01-15T17:08:32;6.60;99.90
13561;DHT22;6852;51.686;5.314;2023-01-15T17:11:01;6.50;99.90
13561;DHT22;6852;51.686;5.314;2023-01-15T17:13:37;6.40;99.90
13561;DHT22;6852;51.686;5.314;2023-01-15T17:16:24;6.40;99.90
13561;DHT22;6852;51.686;5.314;2023-01-15T17:18:52;6.30;99.90
13561;DHT22;6852;51.686;5.314;2023-01-15T17:21:21;6.30;99.90
13561;DHT22;6852;51.686;5.314;2023-01-15T17:23:54;6.20;99.90
13561;DHT22;6852;51.686;5.314;2023-01-15T17:26:24;6.20;99.90
13561;DHT22;6852;51.686;5.314;2023-01-15T17:28:51;6.20;99.90
13561;DHT22;6852;51.686;5.314;2023-01-15T17:31:25;6.10;99.90
13561;DHT22;6852;51.686;5.314;2023-01-15T17:33:58;6.10;99.90
13561;DHT22;6852;51.686;5.314;2023-01-15T17:36:26;6.00;99.90
13561;DHT22;6852;51.686;5.314;2023-01-15T17:38:54;6.10;99.90
13561;DHT22;6852;51.686;5.314;2023-01-15T17:41:22;6.00;99.90
13561;DHT22;6852;51.686;5.314;2023-01-15T17:43:49;6.00;99.90
13561;DHT22;6852;51.686;5.314;2023-01-15T17:46:16;6.00;99.90
13561;DHT22;6852;51.686;5.314;2023-01-15T17:48:43;5.90;99.90
13561;DHT22;6852;51.686;5.314;2023-01-15T17:51:14;5.90;99.90
13561;DHT22;6852;51.686;5.314;2023-01-15T17:53:42;5.90;99.90
13561;DHT22;6852;51.686;5.314;2023-01-15T17:56:09;5.90;99.90
13561;DHT22;6852;51.686;5.314;2023-01-15T17:58:54;5.90;99.90
13561;DHT22;6852;51.686;5.314;2023-01-15T18:01:59;5.80;99.90
13561;DHT22;6852;51.686;5.314;2023-01-15T18:04:50;5.80;99.90
13561;DHT22;6852;51.686;5.314;2023-01-15T18:07:39;5.80;99.90
13561;DHT22;6852;51.686;5.314;2023-01-15T18:10:09;5.80;99.90
13561;DHT22;6852;51.686;5.314;2023-01-15T18:12:36;5.80;99.90
13561;DHT22;6852;51.686;5.314;2023-01-15T18:15:03;5.80;99.90
13561;DHT22;6852;51.686;5.314;2023-01-15T18:17:30;5.70;99.90
13561;DHT22;6852;51.686;5.314;2023-01-15T18:19:57;5.70;99.90
13561;DHT22;6852;51.686;5.314;2023-01-15T18:22:24;5.70;99.90
13561;DHT22;6852;51.686;5.314;2023-01-15T18:24:50;5.60;99.90
13561;DHT22;6852;51.686;5.314;2023-01-15T18:27:17;5.60;99.90
13561;DHT22;6852;51.686;5.314;2023-01-15T18:29:44;5.60;99.90
13561;DHT22;6852;51.686;5.314;2023-01-15T18:32:10;5.50;99.90
13561;DHT22;6852;51.686;5.314;2023-01-15T18:34:37;5.60;99.90
13561;DHT22;6852;51.686;5.314;2023-01-15T18:37:04;5.50;99.90
13561;DHT22;6852;51.686;5.314;2023-01-15T18:39:32;5.50;99.90
13561;DHT22;6852;51.686;5.314;2023-01-15T18:42:01;5.50;99.90
13561;DHT22;6852;51.686;5.314;2023-01-15T18:44:27;5.50;99.90
13561;DHT22;6852;51.686;5.314;2023-01-15T18:47:14;5.50;99.90
13561;DHT22;6852;51.686;5.314;2023-01-15T18:49:44;5.50;99.90
13561;DHT22;6852;51.686;5.314;2023-01-15T18:52:12;5.50;99.90
13561;DHT22;6852;51.686;5.314;2023-01-15T18:54:58;5.50;99.90
13561;DHT22;6852;51.686;5.314;2023-01-15T18:57:25;5.40;99.90
13561;DHT22;6852;51.686;5.314;2023-01-15T18:59:52;5.50;99.90
13561;DHT22;6852;51.686;5.314;2023-01-15T19:02:20;5.50;99.90
13561;DHT22;6852;51.686;5.314;2023-01-15T19:04:47;5.40;99.90